Blue Point, Illinois
Current Conditions -  °F | °C
As of 6:15 PM on Thursday 27 Nov 2014 (Local Time) from K1H2 Reporting Station
Clear Clear  
Wind Chill: 14°   Ceiling: Unl
Heat Index: 22°   Visibility: 10mi
Dew Point: 14°   Wind: 7mph
Humidity: 70%   Direction: 320°NW
Pressure: 30.47"   Gusts: NA
Location:  39.1183°N, 88.6059°W
Report Text: K1H2 280015Z AUTO 32006KT 10SM CLR M05/M10 A3047 RMK AO2 T10531100
Loading
Personal Weather Stations






























Interactive Weather Map New forecast layout! Learn more

10-Day Weather Forecast

Advertisements
Track Severe Weather on mobile